createdAt,value
2018-07-23T00:01:20.044Z,17.75
2018-07-23T00:03:48.415Z,16.30
2018-07-23T00:06:16.787Z,18.10
2018-07-23T00:08:45.143Z,19.67
2018-07-23T00:11:13.519Z,19.25
2018-07-23T00:13:41.869Z,19.73
2018-07-23T00:16:10.244Z,19.60
2018-07-23T00:18:38.612Z,18.90
2018-07-23T00:21:07.013Z,17.82
2018-07-23T00:23:35.355Z,18.00
2018-07-23T00:26:03.783Z,17.95
2018-07-23T00:28:32.133Z,18.30
2018-07-23T00:31:00.476Z,17.77
2018-07-23T00:33:28.855Z,18.90
2018-07-23T00:35:56.909Z,19.52
2018-07-23T00:38:25.287Z,17.48
2018-07-23T00:40:53.623Z,18.23
2018-07-23T00:43:22.012Z,16.27
2018-07-23T00:45:50.361Z,20.75
2018-07-23T00:48:18.728Z,20.15
2018-07-23T00:50:46.788Z,22.32
2018-07-23T00:53:15.158Z,20.30
2018-07-23T00:55:43.495Z,20.72
2018-07-23T00:58:11.859Z,21.93
2018-07-23T01:00:40.311Z,20.75
2018-07-23T01:03:08.431Z,21.33
2018-07-23T01:05:38.285Z,20.60
2018-07-23T01:08:07.126Z,20.60
2018-07-23T01:10:35.480Z,18.77
2018-07-23T01:13:03.856Z,19.80
2018-07-23T01:15:32.187Z,22.42
2018-07-23T01:18:00.572Z,19.95
2018-07-23T01:20:28.947Z,23.70
2018-07-23T01:22:57.327Z,23.87
2018-07-23T01:25:25.676Z,25.32
2018-07-23T01:27:54.096Z,22.87
2018-07-23T01:30:22.483Z,22.17
2018-07-23T01:32:50.903Z,23.65
2018-07-23T01:35:19.284Z,22.05
2018-07-23T01:37:47.678Z,23.00
2018-07-23T01:40:16.042Z,23.05
2018-07-23T01:42:44.427Z,18.73
2018-07-23T01:45:12.773Z,19.85
2018-07-23T01:47:41.152Z,20.35
2018-07-23T01:50:09.500Z,21.12
2018-07-23T01:52:37.901Z,18.85
2018-07-23T01:55:06.519Z,19.73
2018-07-23T01:57:34.931Z,19.37
2018-07-23T02:00:03.316Z,23.95
2018-07-23T02:02:31.707Z,26.73
2018-07-23T02:05:00.116Z,39.38
2018-07-23T02:07:28.512Z,34.70
2018-07-23T02:09:56.631Z,35.10
2018-07-23T02:12:25.024Z,33.40
2018-07-23T02:14:53.411Z,43.68
2018-07-23T02:17:21.823Z,41.20
2018-07-23T02:19:50.169Z,40.43
2018-07-23T02:22:18.604Z,44.65
2018-07-23T02:24:46.988Z,44.33
2018-07-23T02:27:15.380Z,35.70
2018-07-23T02:29:43.807Z,33.40
2018-07-23T02:32:12.164Z,29.70
2018-07-23T02:34:40.568Z,29.00
2018-07-23T02:37:08.948Z,29.95
2018-07-23T02:39:37.344Z,29.18
2018-07-23T02:42:06.203Z,29.40
2018-07-23T02:44:34.598Z,26.07
2018-07-23T02:47:02.987Z,29.12
2018-07-23T02:49:31.417Z,28.60
2018-07-23T02:51:59.785Z,30.60
2018-07-23T02:54:28.203Z,29.57
2018-07-23T02:56:56.604Z,29.18
2018-07-23T02:59:25.014Z,27.73
2018-07-23T03:01:53.389Z,30.82
2018-07-23T03:04:21.824Z,30.77
2018-07-23T03:06:50.192Z,31.68
2018-07-23T03:09:18.632Z,33.00
2018-07-23T03:11:47.000Z,32.55
2018-07-23T03:14:15.380Z,30.97
2018-07-23T03:16:43.732Z,30.85
2018-07-23T03:19:12.137Z,33.78
2018-07-23T03:21:40.603Z,36.05
2018-07-23T03:24:08.963Z,41.30
2018-07-23T03:26:37.318Z,34.67
2018-07-23T03:29:05.784Z,37.45
2018-07-23T03:31:34.151Z,39.27
2018-07-23T03:34:02.543Z,42.10
2018-07-23T03:36:30.903Z,38.50
2018-07-23T03:38:59.283Z,36.75
2018-07-23T03:41:27.636Z,33.75
2018-07-23T03:43:56.033Z,38.95
2018-07-23T03:46:24.439Z,38.13
2018-07-23T03:48:52.816Z,37.95
2018-07-23T03:51:20.895Z,33.35
2018-07-23T03:53:49.298Z,36.35
2018-07-23T03:56:17.752Z,31.45
2018-07-23T03:58:45.878Z,35.78
2018-07-23T04:01:14.269Z,35.13
2018-07-23T04:03:42.663Z,33.83
2018-07-23T04:06:11.018Z,33.10
2018-07-23T04:08:39.448Z,31.95
2018-07-23T04:11:07.527Z,32.45
2018-07-23T04:13:35.952Z,31.90
2018-07-23T04:16:04.365Z,34.95
2018-07-23T04:18:32.751Z,30.27
2018-07-23T04:21:01.137Z,31.52
2018-07-23T04:23:29.235Z,34.25
2018-07-23T04:25:57.593Z,31.05
2018-07-23T04:28:25.971Z,33.15
2018-07-23T04:30:54.355Z,35.70
2018-07-23T04:33:22.772Z,33.92
2018-07-23T04:35:51.156Z,29.92
2018-07-23T04:38:19.511Z,27.85
2018-07-23T04:40:47.901Z,30.90
2018-07-23T04:43:16.256Z,30.17
2018-07-23T04:45:44.666Z,30.23
2018-07-23T04:48:13.065Z,31.85
2018-07-23T04:50:41.520Z,28.55
2018-07-23T04:53:09.875Z,33.63
2018-07-23T04:55:38.253Z,28.00
2018-07-23T04:58:06.324Z,29.60
2018-07-23T05:00:34.427Z,33.45
2018-07-23T05:03:02.786Z,29.85
2018-07-23T05:05:30.887Z,33.75
2018-07-23T05:07:59.234Z,33.33
2018-07-23T05:10:27.690Z,27.75
2018-07-23T05:12:56.029Z,31.23
2018-07-23T05:15:24.428Z,26.37
2018-07-23T05:17:52.904Z,26.50
2018-07-23T05:20:21.284Z,29.27
2018-07-23T05:22:49.632Z,30.17
2018-07-23T05:25:18.010Z,25.72
2018-07-23T05:27:46.463Z,26.05
2018-07-23T05:30:14.903Z,32.95
2018-07-23T05:32:43.243Z,31.17
2018-07-23T05:35:11.824Z,34.48
2018-07-23T05:37:40.484Z,33.55
2018-07-23T05:40:08.936Z,31.33
2018-07-23T05:42:37.410Z,33.20
2018-07-23T05:45:06.190Z,31.02
2018-07-23T05:47:34.572Z,31.15
2018-07-23T05:50:03.004Z,34.38
2018-07-23T05:52:31.356Z,31.70
2018-07-23T05:54:59.739Z,27.37
2018-07-23T05:57:28.096Z,30.65
2018-07-23T05:59:56.501Z,26.77
2018-07-23T06:02:24.857Z,28.65
2018-07-23T06:04:53.283Z,31.35
2018-07-23T06:07:21.639Z,27.42
2018-07-23T06:09:50.139Z,34.20
2018-07-23T06:12:18.493Z,31.55
2018-07-23T06:14:46.888Z,36.15
2018-07-23T06:17:15.231Z,40.10
2018-07-23T06:19:43.615Z,41.37
2018-07-23T06:22:11.980Z,37.20
2018-07-23T06:24:40.387Z,39.42
2018-07-23T06:27:08.756Z,41.05
2018-07-23T06:29:37.176Z,37.35
2018-07-23T06:32:05.776Z,40.48
2018-07-23T06:34:34.199Z,39.10
2018-07-23T06:37:02.552Z,40.43
2018-07-23T06:39:30.653Z,39.70
2018-07-23T06:41:59.872Z,35.68
2018-07-23T06:44:28.264Z,34.73
2018-07-23T06:46:56.616Z,36.08
2018-07-23T06:49:24.988Z,36.15
2018-07-23T06:51:53.332Z,36.63
2018-07-23T06:54:21.732Z,36.68
2018-07-23T06:56:50.081Z,34.90
2018-07-23T06:59:18.472Z,38.17
2018-07-23T07:01:46.857Z,36.55
2018-07-23T07:04:15.263Z,36.28
2018-07-23T07:06:43.620Z,36.63
2018-07-23T07:09:11.751Z,37.25
2018-07-23T07:11:40.100Z,37.55
2018-07-23T07:14:08.772Z,37.63
2018-07-23T07:16:37.207Z,35.83
2018-07-23T07:19:05.711Z,41.15
2018-07-23T07:21:34.059Z,38.67
2018-07-23T07:24:02.440Z,36.77
2018-07-23T07:26:30.831Z,39.42
2018-07-23T07:28:59.184Z,40.00
2018-07-23T07:31:27.577Z,41.88
2018-07-23T07:33:56.027Z,38.08
2018-07-23T07:36:24.461Z,39.65
2018-07-23T07:38:52.824Z,39.03
2018-07-23T07:41:21.222Z,37.03
2018-07-23T07:43:49.573Z,39.15
2018-07-23T07:46:17.980Z,36.10
2018-07-23T07:48:46.361Z,38.23
2018-07-23T07:51:14.740Z,35.20
2018-07-23T07:53:43.087Z,34.80
2018-07-23T07:56:11.587Z,35.80
2018-07-23T07:58:39.934Z,36.05
2018-07-23T08:01:08.343Z,34.80
2018-07-23T08:03:36.703Z,35.00
2018-07-23T08:06:05.114Z,35.83
2018-07-23T08:08:33.511Z,36.95
2018-07-23T08:11:01.920Z,39.38
2018-07-23T08:13:30.267Z,35.90
2018-07-23T08:15:58.689Z,36.75
2018-07-23T08:18:27.096Z,35.90
2018-07-23T08:20:55.489Z,35.03
2018-07-23T08:23:23.849Z,36.70
2018-07-23T08:25:52.239Z,34.10
2018-07-23T08:28:20.617Z,34.40
2018-07-23T08:30:49.121Z,36.17
2018-07-23T08:33:24.111Z,33.13
2018-07-23T08:35:52.491Z,35.88
2018-07-23T08:38:20.852Z,34.25
2018-07-23T08:40:49.245Z,30.08
2018-07-23T08:43:18.004Z,33.58
2018-07-23T08:45:46.404Z,33.13
2018-07-23T08:48:14.848Z,34.98
2018-07-23T08:50:43.248Z,35.23
2018-07-23T08:53:11.692Z,33.37
2018-07-23T08:55:40.120Z,28.55
2018-07-23T08:58:08.500Z,30.20
2018-07-23T09:00:36.622Z,28.30
2018-07-23T09:03:04.987Z,30.70
2018-07-23T09:05:33.385Z,29.40
2018-07-23T09:08:01.744Z,29.17
2018-07-23T09:10:30.164Z,27.43
2018-07-23T09:13:01.485Z,30.20
2018-07-23T09:15:29.912Z,30.43
2018-07-23T09:17:58.280Z,29.03
2018-07-23T09:20:26.668Z,30.60
2018-07-23T09:22:55.021Z,28.73
2018-07-23T09:25:26.360Z,31.50
2018-07-23T09:27:54.708Z,27.37
2018-07-23T09:30:28.423Z,27.27
2018-07-23T09:32:56.810Z,32.50
2018-07-23T09:35:25.171Z,27.57
2018-07-23T09:37:53.575Z,29.43
2018-07-23T09:40:22.063Z,30.90
2018-07-23T09:42:50.461Z,27.50
2018-07-23T09:45:18.847Z,28.00
2018-07-23T09:47:47.230Z,26.70
2018-07-23T09:50:15.588Z,25.33
2018-07-23T09:52:44.126Z,24.20
2018-07-23T09:55:12.533Z,24.80
2018-07-23T09:57:40.964Z,25.13
2018-07-23T10:00:09.339Z,19.73
2018-07-23T10:02:37.724Z,30.47
2018-07-23T10:05:06.208Z,27.57
2018-07-23T10:07:34.595Z,22.00
2018-07-23T10:10:02.981Z,22.50
2018-07-23T10:12:31.371Z,19.57
2018-07-23T10:14:59.735Z,20.50
2018-07-23T10:17:28.111Z,24.67
2018-07-23T10:19:56.460Z,23.73
2018-07-23T10:22:24.937Z,24.80
2018-07-23T10:24:53.297Z,21.93
2018-07-23T10:27:21.684Z,22.60
2018-07-23T10:29:50.070Z,22.63
2018-07-23T10:32:18.461Z,23.43
2018-07-23T10:34:46.831Z,21.53
2018-07-23T10:37:15.212Z,21.70
2018-07-23T10:39:43.810Z,22.03
2018-07-23T10:42:12.208Z,19.80
2018-07-23T10:44:40.593Z,18.03
2018-07-23T10:47:08.968Z,18.63
2018-07-23T10:49:37.352Z,19.40
2018-07-23T10:52:05.812Z,19.37
2018-07-23T10:54:34.183Z,18.30
2018-07-23T10:57:02.603Z,18.37
2018-07-23T10:59:30.994Z,17.60
2018-07-23T11:01:59.432Z,19.67
2018-07-23T11:04:27.959Z,19.50
2018-07-23T11:06:56.448Z,21.47
2018-07-23T11:09:25.072Z,16.00
2018-07-23T11:11:53.512Z,18.40
2018-07-23T11:14:22.176Z,16.57
2018-07-23T11:16:50.775Z,16.00
2018-07-23T11:19:19.621Z,18.27
2018-07-23T11:21:48.020Z,17.77
2018-07-23T11:24:16.534Z,18.33
2018-07-23T11:26:45.017Z,16.67
2018-07-23T11:34:54.279Z,16.80
2018-07-23T11:37:22.736Z,17.50
2018-07-23T11:39:57.027Z,15.43
2018-07-23T11:42:38.879Z,18.77
2018-07-23T11:45:07.279Z,17.50
2018-07-23T11:47:35.383Z,16.67
2018-07-23T11:50:03.851Z,15.70
2018-07-23T11:52:32.220Z,14.60
2018-07-23T11:55:00.563Z,14.60
2018-07-23T11:57:28.928Z,15.57
2018-07-23T11:59:57.277Z,14.17
2018-07-23T12:02:25.677Z,13.80
2018-07-23T12:04:54.045Z,16.00
2018-07-23T12:07:22.433Z,14.60
2018-07-23T12:09:50.804Z,15.23
2018-07-23T12:12:19.164Z,15.47
2018-07-23T12:14:47.571Z,13.93
2018-07-23T12:17:15.976Z,13.37
2018-07-23T12:19:44.341Z,14.80
2018-07-23T12:22:12.691Z,14.40
2018-07-23T12:24:41.067Z,14.00
2018-07-23T12:27:09.405Z,13.60
2018-07-23T12:29:37.779Z,14.70
2018-07-23T12:32:06.244Z,14.43
2018-07-23T12:34:34.616Z,14.83
2018-07-23T12:37:02.995Z,14.33
2018-07-23T12:39:31.462Z,14.73
2018-07-23T12:41:59.740Z,14.87
2018-07-23T12:44:28.109Z,14.37
2018-07-23T12:46:56.464Z,14.93
2018-07-23T12:49:24.829Z,15.77
2018-07-23T12:51:53.205Z,14.00
2018-07-23T12:54:21.581Z,14.40
2018-07-23T12:56:49.942Z,15.00
2018-07-23T12:59:18.314Z,14.50
2018-07-23T13:01:46.668Z,14.20
2018-07-23T13:04:15.334Z,15.47
2018-07-23T13:06:43.748Z,15.27
2018-07-23T13:09:13.115Z,15.73
2018-07-23T13:11:41.184Z,15.10
2018-07-23T13:14:09.648Z,15.40
2018-07-23T13:16:38.006Z,16.30
2018-07-23T13:19:06.446Z,15.67
2018-07-23T13:21:34.828Z,18.27
2018-07-23T13:24:03.227Z,16.17
2018-07-23T13:26:31.709Z,16.83
2018-07-23T13:29:00.116Z,15.00
2018-07-23T13:31:28.474Z,15.30
2018-07-23T13:33:56.837Z,15.20
2018-07-23T13:36:25.204Z,14.87
2018-07-23T13:38:53.591Z,15.53
2018-07-23T13:41:21.971Z,14.13
2018-07-23T13:46:25.014Z,15.60
2018-07-23T13:48:53.429Z,14.00
2018-07-23T13:51:21.500Z,14.07
2018-07-23T13:53:49.931Z,13.70
2018-07-23T13:56:18.621Z,15.57
2018-07-23T13:58:47.103Z,15.60
2018-07-23T14:01:15.554Z,15.10
2018-07-23T14:03:43.942Z,14.70
2018-07-23T14:06:12.648Z,15.00
2018-07-23T14:08:41.071Z,14.67
2018-07-23T14:11:09.727Z,15.90
2018-07-23T14:13:38.093Z,17.30
2018-07-23T14:16:07.290Z,15.33
2018-07-23T14:18:35.668Z,14.87
2018-07-23T14:21:04.205Z,13.90
2018-07-23T14:23:32.652Z,13.70
2018-07-23T14:26:01.252Z,13.83
2018-07-23T14:28:29.871Z,14.10
2018-07-23T14:30:58.272Z,13.53
2018-07-23T14:33:26.998Z,13.73
2018-07-23T14:35:55.467Z,12.63
2018-07-23T14:38:23.811Z,14.07
2018-07-23T14:40:52.240Z,13.80
2018-07-23T14:43:21.169Z,14.07
2018-07-23T14:45:49.960Z,12.00
2018-07-23T14:48:18.390Z,13.13
2018-07-23T14:50:46.916Z,13.80
2018-07-23T14:53:15.272Z,13.20
2018-07-23T14:55:43.640Z,14.37
2018-07-23T14:58:12.052Z,14.10
2018-07-23T15:00:40.437Z,13.60
2018-07-23T15:03:08.778Z,13.60
2018-07-23T15:05:37.187Z,13.30
2018-07-23T15:08:05.736Z,13.80
2018-07-23T15:10:34.368Z,14.40
2018-07-23T15:13:02.815Z,13.90
2018-07-23T15:15:32.012Z,14.17
2018-07-23T15:18:01.444Z,13.40
2018-07-23T15:20:29.851Z,13.30
2018-07-23T15:22:58.213Z,13.43
2018-07-23T15:25:26.368Z,14.10
2018-07-23T15:27:54.784Z,14.50
2018-07-23T15:30:23.200Z,12.77
2018-07-23T15:32:51.559Z,13.37
2018-07-23T15:35:19.999Z,13.40
2018-07-23T15:37:48.352Z,14.20
2018-07-23T15:40:16.751Z,12.87
2018-07-23T15:42:45.185Z,13.30
2018-07-23T15:45:13.681Z,13.90
2018-07-23T15:47:42.055Z,13.70
2018-07-23T15:50:10.433Z,13.87
2018-07-23T15:52:38.963Z,13.07
2018-07-23T15:55:07.388Z,14.17
2018-07-23T15:57:35.767Z,14.00
2018-07-23T16:00:04.676Z,13.37
2018-07-23T16:02:33.062Z,13.10
2018-07-23T16:05:01.471Z,12.73
2018-07-23T16:07:29.859Z,14.57
2018-07-23T16:09:58.241Z,14.53
2018-07-23T16:12:26.720Z,13.87
2018-07-23T16:14:55.084Z,14.30
2018-07-23T16:17:23.460Z,14.07
2018-07-23T16:19:51.812Z,14.17
2018-07-23T16:22:20.208Z,14.07
2018-07-23T16:24:48.579Z,14.60
2018-07-23T16:27:17.079Z,13.13
2018-07-23T16:29:45.468Z,14.60
2018-07-23T16:32:14.295Z,13.90
2018-07-23T16:34:42.680Z,13.33
2018-07-23T16:37:11.095Z,14.83
2018-07-23T16:39:39.451Z,14.60
2018-07-23T16:42:07.935Z,13.60
2018-07-23T16:44:36.407Z,12.73
2018-07-23T16:47:04.853Z,13.50
2018-07-23T16:49:33.183Z,13.73
2018-07-23T16:52:01.588Z,14.30
2018-07-23T16:54:29.925Z,13.67
2018-07-23T16:56:58.304Z,14.90
2018-07-23T16:59:26.375Z,17.07
2018-07-23T17:01:54.735Z,14.20
2018-07-23T17:04:23.087Z,14.47
2018-07-23T17:06:51.476Z,15.70
2018-07-23T17:09:19.833Z,14.33
2018-07-23T17:11:48.259Z,16.10
2018-07-23T17:14:16.607Z,16.00
2018-07-23T17:16:44.988Z,16.00
2018-07-23T17:19:13.347Z,15.00
2018-07-23T17:21:41.726Z,14.50
2018-07-23T17:24:10.095Z,14.57
2018-07-23T17:26:38.515Z,14.70
2018-07-23T17:29:06.893Z,15.23
2018-07-23T17:31:35.296Z,14.90
2018-07-23T17:34:03.645Z,15.10
2018-07-23T17:36:32.035Z,13.90
2018-07-23T17:39:00.389Z,13.83
2018-07-23T17:41:28.780Z,13.73
2018-07-23T17:43:57.136Z,13.33
2018-07-23T17:46:25.487Z,14.10
2018-07-23T17:48:53.567Z,13.73
2018-07-23T17:51:21.671Z,13.53
2018-07-23T17:53:50.028Z,14.17
2018-07-23T17:56:18.392Z,13.90
2018-07-23T17:58:46.740Z,15.63
2018-07-23T18:01:15.103Z,13.03
2018-07-23T18:03:43.459Z,12.47
2018-07-23T18:06:11.859Z,14.03
2018-07-23T18:08:40.224Z,13.80
2018-07-23T18:11:08.620Z,13.93
2018-07-23T18:13:36.980Z,12.90
2018-07-23T18:16:05.331Z,13.50
2018-07-23T18:18:33.711Z,13.83
2018-07-23T18:21:01.798Z,12.70
2018-07-23T18:23:30.265Z,13.20
2018-07-23T18:25:58.651Z,13.47
2018-07-23T18:28:27.054Z,13.37
2018-07-23T18:30:55.755Z,13.07
2018-07-23T18:33:24.151Z,12.97
2018-07-23T18:35:52.511Z,13.90
2018-07-23T18:38:20.983Z,13.17
2018-07-23T18:40:49.261Z,13.20
2018-07-23T18:43:17.641Z,13.80
2018-07-23T18:45:46.025Z,12.43
2018-07-23T18:49:31.896Z,13.60
2018-07-23T18:52:00.024Z,13.27
2018-07-23T18:54:29.559Z,13.40
2018-07-23T18:56:58.899Z,12.33
2018-07-23T18:59:27.308Z,13.13
2018-07-23T19:01:56.455Z,13.17
2018-07-23T19:04:24.533Z,15.00
2018-07-23T19:06:52.996Z,13.43
2018-07-23T19:09:22.407Z,13.67
2018-07-23T19:11:51.873Z,14.43
2018-07-23T19:14:20.593Z,14.30
2018-07-23T19:16:49.607Z,13.67
2018-07-23T19:19:18.033Z,14.33
2018-07-23T19:21:46.371Z,14.53
2018-07-23T19:24:14.795Z,12.73
2018-07-23T19:26:43.191Z,14.97
2018-07-23T19:29:11.604Z,14.80
2018-07-23T19:31:39.986Z,13.93
2018-07-23T19:34:08.363Z,15.77
2018-07-23T19:36:36.539Z,14.93
2018-07-23T19:39:09.392Z,15.70
2018-07-23T19:41:37.906Z,14.87
2018-07-23T19:44:06.484Z,14.67
2018-07-23T19:46:34.881Z,14.33
2018-07-23T19:49:03.375Z,14.80
2018-07-23T19:51:31.800Z,15.03
2018-07-23T19:54:00.196Z,14.53
2018-07-23T19:56:28.591Z,15.07
2018-07-23T19:58:56.743Z,15.10
2018-07-23T20:01:25.104Z,13.77
2018-07-23T20:03:53.540Z,16.27
2018-07-23T20:06:23.115Z,16.90
2018-07-23T20:08:52.443Z,16.07
2018-07-23T20:11:21.659Z,19.13
2018-07-23T20:13:50.151Z,16.10
2018-07-23T20:16:19.064Z,15.78
2018-07-23T20:18:47.532Z,17.75
2018-07-23T20:21:15.949Z,15.38
2018-07-23T20:23:44.667Z,16.17
2018-07-23T20:26:12.778Z,16.50
2018-07-23T20:28:41.230Z,17.32
2018-07-23T20:31:09.633Z,17.00
2018-07-23T20:33:39.761Z,17.92
2018-07-23T20:36:08.811Z,17.30
2018-07-23T20:38:37.272Z,17.52
2018-07-23T20:41:05.641Z,17.12
2018-07-23T20:43:34.265Z,16.23
2018-07-23T20:46:02.849Z,18.65
2018-07-23T20:48:31.251Z,16.00
2018-07-23T20:50:59.636Z,18.02
2018-07-23T20:53:28.069Z,17.25
2018-07-23T20:55:56.421Z,17.85
2018-07-23T20:58:24.834Z,19.00
2018-07-23T21:00:53.197Z,17.45
2018-07-23T21:03:21.597Z,18.37
2018-07-23T21:05:49.987Z,18.87
2018-07-23T21:08:18.079Z,18.67
2018-07-23T21:10:46.447Z,17.90
2018-07-23T21:13:14.865Z,16.93
2018-07-23T21:15:43.258Z,18.00
2018-07-23T21:18:11.655Z,19.92
2018-07-23T21:20:40.029Z,17.15
2018-07-23T21:23:08.639Z,17.65
2018-07-23T21:25:37.018Z,17.70
2018-07-23T21:28:05.535Z,18.20
2018-07-23T21:30:33.899Z,18.17
2018-07-23T21:33:02.264Z,17.95
2018-07-23T21:35:30.627Z,19.77
2018-07-23T21:38:05.368Z,19.55
2018-07-23T21:40:33.728Z,19.87
2018-07-23T21:43:02.101Z,20.48
2018-07-23T21:45:30.493Z,20.43
2018-07-23T21:47:58.883Z,19.95
2018-07-23T21:50:27.251Z,19.10
2018-07-23T21:52:55.661Z,21.12
2018-07-23T21:55:24.057Z,20.88
2018-07-23T21:57:52.508Z,20.27
2018-07-23T22:00:20.935Z,23.35
2018-07-23T22:02:49.321Z,21.10
2018-07-23T22:05:17.701Z,21.10
2018-07-23T22:07:46.067Z,19.57
2018-07-23T22:10:14.444Z,21.40
2018-07-23T22:12:42.519Z,20.62
2018-07-23T22:15:11.620Z,19.60
2018-07-23T22:17:39.988Z,21.52
2018-07-23T22:20:09.075Z,20.10
2018-07-23T22:22:37.142Z,21.20
2018-07-23T22:25:05.250Z,21.82
2018-07-23T22:27:33.635Z,20.12
2018-07-23T22:30:02.101Z,21.62
2018-07-23T22:32:30.417Z,21.85
2018-07-23T22:34:58.788Z,21.35
2018-07-23T22:37:27.156Z,22.22
2018-07-23T22:39:55.548Z,22.75
2018-07-23T22:42:23.961Z,20.45
2018-07-23T22:44:52.331Z,21.68
2018-07-23T22:47:20.678Z,20.35
2018-07-23T22:49:49.067Z,20.17
2018-07-23T22:52:17.487Z,20.08
2018-07-23T22:54:45.839Z,19.90
2018-07-23T22:57:14.266Z,19.80
2018-07-23T22:59:42.639Z,21.42
2018-07-23T23:02:11.009Z,20.75
2018-07-23T23:04:39.403Z,21.50
2018-07-23T23:07:07.771Z,20.85
2018-07-23T23:09:36.128Z,20.55
2018-07-23T23:12:04.604Z,22.67
2018-07-23T23:14:32.991Z,21.62
2018-07-23T23:17:01.537Z,22.87
2018-07-23T23:19:30.184Z,22.87
2018-07-23T23:21:58.555Z,22.62
2018-07-23T23:24:27.005Z,22.93
2018-07-23T23:26:55.364Z,20.72
2018-07-23T23:29:23.796Z,22.00
2018-07-23T23:31:52.175Z,22.25
2018-07-23T23:34:20.556Z,21.27
2018-07-23T23:36:48.936Z,20.72
2018-07-23T23:39:17.280Z,21.70
2018-07-23T23:41:45.647Z,22.55
2018-07-23T23:44:13.988Z,22.52
2018-07-23T23:46:42.343Z,22.93
2018-07-23T23:49:10.707Z,23.47
2018-07-23T23:51:39.088Z,23.38
2018-07-23T23:54:07.445Z,21.95
2018-07-23T23:56:35.807Z,22.85
2018-07-23T23:59:04.278Z,23.10
